Time;durP1;ratioP1;P1;durP2;ratioP2;P2;SDS_P1;SDS_P2;PMS_P1;PMS_P2;Temp;Humidity;BMP_temperature;BMP_pressure;BME280_temperature;BME280_humidity;BME280_pressure;Samples;Min_cycle;Max_cycle;Signal;HPM_P1;HPM_P2
2023/08/29 00:00:26;;;;;;;17.42;11.45;;;10.30;99.90;;;;;;6128155;23;20194;-78
2023/08/29 00:02:52;;;;;;;12.25;8.95;;;10.30;99.90;;;;;;6129116;23;20061;-79
2023/08/29 00:05:19;;;;;;;9.95;6.65;;;10.30;99.90;;;;;;6129197;23;20036;-78
2023/08/29 00:07:45;;;;;;;10.50;6.55;;;10.30;99.90;;;;;;6128139;23;20040;-78
2023/08/29 00:10:10;;;;;;;7.20;5.50;;;10.30;99.90;;;;;;6129064;23;20041;-78
2023/08/29 00:12:36;;;;;;;65.43;13.18;;;10.30;99.90;;;;;;6129147;23;20021;-78
2023/08/29 00:15:05;;;;;;;13.30;9.38;;;10.30;99.90;;;;;;6152192;23;20013;-78
2023/08/29 00:17:31;;;;;;;9.63;6.68;;;10.30;99.90;;;;;;6128558;23;20021;-78
2023/08/29 00:19:57;;;;;;;26.60;11.75;;;10.20;99.90;;;;;;6128606;23;20014;-77
2023/08/29 00:22:22;;;;;;;16.42;7.10;;;10.20;99.90;;;;;;6129323;23;20018;-78
2023/08/29 00:24:52;;;;;;;22.95;10.60;;;10.20;99.90;;;;;;6127756;23;20469;-78
2023/08/29 00:27:18;;;;;;;25.40;14.23;;;10.10;99.90;;;;;;6151237;23;20010;-78
2023/08/29 00:29:43;;;;;;;20.20;12.65;;;10.10;99.90;;;;;;6128588;23;20056;-78
2023/08/29 00:32:10;;;;;;;19.95;14.05;;;10.10;99.90;;;;;;6128725;23;20092;-78
2023/08/29 00:34:36;;;;;;;31.73;19.85;;;10.10;99.90;;;;;;6128086;23;20446;-78
2023/08/29 00:37:02;;;;;;;17.00;12.38;;;10.10;99.90;;;;;;6128467;23;20019;-78
2023/08/29 00:39:28;;;;;;;11.48;9.63;;;10.10;99.90;;;;;;6127613;23;20406;-78
2023/08/29 00:41:54;;;;;;;15.38;10.30;;;10.10;99.90;;;;;;6128838;23;20493;-78
2023/08/29 00:44:20;;;;;;;12.77;9.35;;;10.10;99.90;;;;;;6153060;23;20010;-78
2023/08/29 00:46:46;;;;;;;14.90;9.25;;;10.10;99.90;;;;;;6128807;23;20017;-78
2023/08/29 00:49:16;;;;;;;10.80;8.50;;;10.00;99.90;;;;;;6103618;23;20020;-78
2023/08/29 00:51:42;;;;;;;58.13;13.63;;;10.00;99.90;;;;;;6104209;23;20101;-78
2023/08/29 00:54:08;;;;;;;102.22;17.40;;;10.00;99.90;;;;;;6128426;23;20466;-78
2023/08/29 00:56:35;;;;;;;15.23;8.05;;;10.00;99.90;;;;;;6128568;23;20101;-77
2023/08/29 00:59:02;;;;;;;14.43;11.60;;;10.00;99.90;;;;;;6128073;23;20097;-78
2023/08/29 01:01:30;;;;;;;15.93;12.43;;;10.00;99.90;;;;;;6128538;23;20045;-78
2023/08/29 01:03:56;;;;;;;9.70;8.32;;;9.90;99.90;;;;;;6128663;23;20465;-78
2023/08/29 01:06:24;;;;;;;9.63;8.75;;;9.80;99.90;;;;;;6127759;23;20088;-78
2023/08/29 01:08:50;;;;;;;10.38;9.13;;;9.90;99.90;;;;;;6127712;23;20385;-78
2023/08/29 01:11:30;;;;;;;11.40;9.77;;;9.90;99.90;;;;;;6128257;23;20013;-78
2023/08/29 01:14:14;;;;;;;9.38;7.22;;;9.90;99.90;;;;;;6128056;23;20454;-78
2023/08/29 01:16:52;;;;;;;140.20;22.55;;;9.80;99.90;;;;;;6102107;23;20085;-79
2023/08/29 01:19:21;;;;;;;42.60;18.38;;;9.80;99.90;;;;;;6126898;23;20006;-79
2023/08/29 01:22:16;;;;;;;25.50;14.25;;;9.80;99.90;;;;;;6128325;23;20017;-78
2023/08/29 01:24:52;;;;;;;24.58;15.95;;;9.80;99.90;;;;;;6099485;23;20085;-78
2023/08/29 01:27:19;;;;;;;11.05;9.85;;;9.80;99.90;;;;;;6127839;23;20013;-78
2023/08/29 01:29:46;;;;;;;16.02;12.50;;;9.70;99.90;;;;;;6128354;23;20009;-78
2023/08/29 01:32:13;;;;;;;10.93;9.32;;;9.70;99.90;;;;;;6128085;23;20006;-77
2023/08/29 01:34:39;;;;;;;10.18;8.05;;;9.70;99.90;;;;;;6127894;23;20017;-78
2023/08/29 01:37:05;;;;;;;58.78;15.85;;;9.70;99.90;;;;;;6127163;23;20021;-78
2023/08/29 01:39:30;;;;;;;10.10;7.40;;;9.70;99.90;;;;;;6128093;23;20006;-78
2023/08/29 01:41:56;;;;;;;13.50;7.90;;;9.60;99.90;;;;;;6128330;23;20009;-78
2023/08/29 01:44:22;;;;;;;34.42;15.57;;;9.60;99.90;;;;;;6127844;23;20525;-78
2023/08/29 01:46:47;;;;;;;28.65;9.93;;;9.60;99.90;;;;;;6103883;23;20037;-78
2023/08/29 01:49:13;;;;;;;15.65;9.20;;;9.60;99.90;;;;;;6127407;23;20476;-78
2023/08/29 01:51:39;;;;;;;12.68;8.02;;;9.50;99.90;;;;;;6127817;23;20010;-78
2023/08/29 01:54:04;;;;;;;18.30;10.40;;;9.50;99.90;;;;;;6127632;23;20071;-78
2023/08/29 01:56:32;;;;;;;14.60;10.15;;;9.50;99.90;;;;;;6128242;23;20025;-78
2023/08/29 01:58:59;;;;;;;8.75;7.88;;;9.40;99.90;;;;;;6126721;23;20009;-78
2023/08/29 02:01:25;;;;;;;17.42;13.15;;;9.40;99.90;;;;;;6127821;23;20021;-78
2023/08/29 02:03:51;;;;;;;9.90;8.73;;;9.40;99.90;;;;;;6127752;23;20009;-79
2023/08/29 02:06:17;;;;;;;55.65;16.85;;;9.40;99.90;;;;;;6127943;23;20021;-78
2023/08/29 02:08:44;;;;;;;25.20;15.35;;;9.40;99.90;;;;;;6127092;23;20013;-78
2023/08/29 02:11:10;;;;;;;10.98;7.63;;;9.40;99.90;;;;;;6127813;23;20017;-78
2023/08/29 02:13:35;;;;;;;20.05;12.90;;;9.40;99.90;;;;;;6127603;23;20033;-79
2023/08/29 02:16:02;;;;;;;36.55;16.08;;;9.30;99.90;;;;;;6127190;23;20048;-77
2023/08/29 02:18:28;;;;;;;13.95;11.43;;;9.30;99.90;;;;;;6126356;23;20017;-78
2023/08/29 02:20:54;;;;;;;22.42;15.95;;;9.30;99.90;;;;;;6127638;23;20489;-78
2023/08/29 02:23:20;;;;;;;26.35;19.85;;;9.30;99.90;;;;;;6128016;23;20013;-78
2023/08/29 02:25:46;;;;;;;36.38;20.10;;;9.30;99.90;;;;;;6127529;23;20016;-78
2023/08/29 02:28:12;;;;;;;19.13;15.18;;;9.40;99.90;;;;;;6127466;23;20442;-78
2023/08/29 02:30:38;;;;;;;16.50;13.48;;;9.30;99.90;;;;;;6127953;23;20576;-78
2023/08/29 02:33:04;;;;;;;17.17;14.13;;;9.40;99.90;;;;;;6127985;23;20048;-77
2023/08/29 02:35:29;;;;;;;20.02;14.88;;;9.40;99.90;;;;;;6127468;23;20145;-78
2023/08/29 02:37:55;;;;;;;30.02;16.80;;;9.40;99.90;;;;;;6126926;23;20020;-78
2023/08/29 02:40:20;;;;;;;25.10;15.45;;;9.30;99.90;;;;;;6128006;23;20398;-78
2023/08/29 02:42:46;;;;;;;26.27;14.55;;;9.30;99.90;;;;;;6128002;23;20014;-78
2023/08/29 02:45:11;;;;;;;15.30;12.30;;;9.30;99.90;;;;;;6103645;23;20017;-78
2023/08/29 02:47:37;;;;;;;19.08;11.80;;;9.30;99.90;;;;;;6127135;23;20085;-77
2023/08/29 02:50:03;;;;;;;174.60;31.60;;;9.30;99.90;;;;;;6128020;23;20096;-77
2023/08/29 02:52:29;;;;;;;34.17;15.48;;;9.30;99.90;;;;;;6127781;23;20017;-78
2023/08/29 02:54:55;;;;;;;18.45;12.52;;;9.20;99.90;;;;;;6127439;23;20065;-78
2023/08/29 02:57:20;;;;;;;15.27;13.52;;;9.20;99.90;;;;;;6126755;23;20045;-78
2023/08/29 02:59:46;;;;;;;20.92;13.60;;;9.20;99.90;;;;;;6127675;23;20013;-78
2023/08/29 03:02:12;;;;;;;32.97;16.17;;;9.20;99.90;;;;;;6128678;23;20521;-78
2023/08/29 03:04:38;;;;;;;24.13;12.70;;;9.20;99.90;;;;;;6129266;23;20013;-78
2023/08/29 03:07:04;;;;;;;113.85;25.80;;;9.10;99.90;;;;;;6128812;23;20408;-79
2023/08/29 03:09:30;;;;;;;14.02;12.18;;;9.10;99.90;;;;;;6129415;23;20017;-78
2023/08/29 03:11:55;;;;;;;12.38;11.02;;;9.10;99.90;;;;;;6129422;23;20346;-78
2023/08/29 03:14:21;;;;;;;16.60;12.68;;;9.10;99.90;;;;;;6128944;23;20040;-78
2023/08/29 03:16:47;;;;;;;35.35;19.02;;;9.10;99.90;;;;;;6104657;23;20064;-78
2023/08/29 03:19:12;;;;;;;12.15;10.15;;;9.10;99.90;;;;;;6129010;23;20329;-78
2023/08/29 03:21:38;;;;;;;27.42;16.55;;;9.10;99.90;;;;;;6129491;23;20389;-78
2023/08/29 03:24:05;;;;;;;15.38;10.73;;;9.10;99.90;;;;;;6104675;23;20021;-78
2023/08/29 03:26:31;;;;;;;24.35;12.93;;;9.00;99.90;;;;;;6128402;23;20163;-78
2023/08/29 03:28:57;;;;;;;78.43;15.20;;;9.00;99.90;;;;;;6128501;23;20409;-77
2023/08/29 03:31:22;;;;;;;74.50;20.23;;;9.00;99.90;;;;;;6129448;23;20017;-78
2023/08/29 03:33:48;;;;;;;14.93;12.10;;;9.00;99.90;;;;;;6129172;23;20017;-78
2023/08/29 03:36:14;;;;;;;15.00;11.00;;;8.90;99.90;;;;;;6128628;23;20083;-78
2023/08/29 03:38:42;;;;;;;13.38;11.65;;;8.90;99.90;;;;;;6128777;23;20032;-79
2023/08/29 03:41:07;;;;;;;30.98;18.23;;;8.90;99.90;;;;;;6129257;23;20524;-78
2023/08/29 03:43:34;;;;;;;41.13;19.35;;;8.90;99.90;;;;;;6129358;23;20118;-78
2023/08/29 03:46:02;;;;;;;13.73;11.18;;;8.90;99.90;;;;;;6128830;23;20016;-78
2023/08/29 03:48:28;;;;;;;10.20;9.13;;;8.80;99.90;;;;;;6127896;23;20014;-78
2023/08/29 03:50:54;;;;;;;17.27;11.10;;;8.80;99.90;;;;;;6129253;23;20743;-77
2023/08/29 03:53:19;;;;;;;35.30;15.82;;;8.80;99.90;;;;;;6129444;23;20052;-78
2023/08/29 03:55:45;;;;;;;69.22;21.30;;;8.80;99.90;;;;;;6128807;23;20017;-78
2023/08/29 03:58:11;;;;;;;42.25;18.98;;;8.80;99.90;;;;;;6104003;23;20044;-78
2023/08/29 04:00:36;;;;;;;78.05;22.60;;;8.70;99.90;;;;;;6129314;23;20009;-78
2023/08/29 04:03:06;;;;;;;34.90;17.30;;;8.70;99.90;;;;;;6153753;23;20134;-78
2023/08/29 04:05:31;;;;;;;30.75;10.70;;;8.70;99.90;;;;;;6128507;23;20010;-78
2023/08/29 04:07:57;;;;;;;80.80;28.73;;;8.70;99.90;;;;;;6128075;23;20060;-78
2023/08/29 04:10:22;;;;;;;15.43;9.52;;;8.70;99.90;;;;;;6129163;23;20442;-79
2023/08/29 04:12:48;;;;;;;49.80;19.92;;;8.70;99.90;;;;;;6128901;23;20036;-78
2023/08/29 04:15:14;;;;;;;17.15;13.50;;;8.70;99.90;;;;;;6128538;23;20458;-78
2023/08/29 04:17:40;;;;;;;12.73;10.50;;;8.60;99.90;;;;;;6128535;23;20017;-78
2023/08/29 04:20:08;;;;;;;89.43;17.17;;;8.60;99.90;;;;;;6153409;23;20025;-78
2023/08/29 04:22:38;;;;;;;9.80;8.80;;;8.60;99.90;;;;;;6129017;23;20013;-78
2023/08/29 04:25:05;;;;;;;26.02;11.88;;;8.60;99.90;;;;;;6128722;23;20016;-78
2023/08/29 04:27:31;;;;;;;16.52;8.52;;;8.60;99.90;;;;;;6128138;23;20083;-79
2023/08/29 04:29:57;;;;;;;57.80;13.60;;;8.50;99.90;;;;;;6126319;23;20029;-78
2023/08/29 04:32:23;;;;;;;10.80;5.95;;;8.50;99.90;;;;;;6127115;23;20602;-78
2023/08/29 04:34:48;;;;;;;19.40;8.55;;;8.50;99.90;;;;;;6128464;23;20018;-78
2023/08/29 04:37:14;;;;;;;78.38;18.65;;;8.50;99.90;;;;;;6128645;23;20078;-78
2023/08/29 04:39:39;;;;;;;85.20;15.20;;;8.50;99.90;;;;;;6125853;23;20005;-78
2023/08/29 04:42:05;;;;;;;27.40;9.40;;;8.40;99.90;;;;;;6128007;23;20014;-78
2023/08/29 04:44:31;;;;;;;49.42;14.13;;;8.50;99.90;;;;;;6128836;23;20461;-78
2023/08/29 04:46:56;;;;;;;21.98;14.00;;;8.40;99.90;;;;;;6104470;23;20013;-78
2023/08/29 04:49:22;;;;;;;18.40;14.55;;;8.50;99.90;;;;;;6127728;23;20037;-79
2023/08/29 04:51:48;;;;;;;7.95;7.18;;;8.40;99.90;;;;;;6127950;23;20071;-78
2023/08/29 04:54:13;;;;;;;61.95;15.65;;;8.40;99.90;;;;;;6128431;23;20401;-78
2023/08/29 04:56:39;;;;;;;23.75;16.23;;;8.40;99.90;;;;;;6128673;23;20013;-78
2023/08/29 04:59:05;;;;;;;22.35;12.35;;;8.40;99.90;;;;;;6127781;23;20009;-78
2023/08/29 05:01:30;;;;;;;15.02;9.18;;;8.40;99.90;;;;;;6128481;23;20018;-78
2023/08/29 05:03:56;;;;;;;7.93;7.13;;;8.40;99.90;;;;;;6128740;23;20417;-79
2023/08/29 05:06:21;;;;;;;12.60;7.93;;;8.40;99.90;;;;;;6127272;23;20012;-78
2023/08/29 05:08:47;;;;;;;32.90;17.90;;;8.40;99.90;;;;;;6103541;23;20013;-78
2023/08/29 05:11:13;;;;;;;11.80;10.15;;;8.40;99.90;;;;;;6103446;23;20013;-78
2023/08/29 05:13:38;;;;;;;10.30;9.15;;;8.40;99.90;;;;;;6132627;23;20141;-78
2023/08/29 05:16:05;;;;;;;67.70;28.45;;;8.50;99.90;;;;;;6132874;23;20096;-78
2023/08/29 05:18:31;;;;;;;9.38;8.27;;;8.50;99.90;;;;;;6156501;23;20089;-78
2023/08/29 05:20:56;;;;;;;22.75;17.13;;;8.50;99.90;;;;;;6131953;23;20045;-78
2023/08/29 05:23:22;;;;;;;17.23;12.68;;;8.50;99.90;;;;;;6133248;23;20084;-78
2023/08/29 05:25:48;;;;;;;37.83;21.77;;;8.60;99.90;;;;;;6133521;23;20041;-78
2023/08/29 05:28:13;;;;;;;17.70;14.57;;;8.60;99.90;;;;;;6131860;23;20076;-78
2023/08/29 05:30:39;;;;;;;21.13;16.63;;;8.70;99.90;;;;;;6131647;23;20350;-78
2023/08/29 05:33:05;;;;;;;15.45;10.63;;;8.70;99.90;;;;;;6131405;23;20014;-78
2023/08/29 05:35:30;;;;;;;35.63;20.15;;;8.70;99.90;;;;;;6157139;23;20335;-78
2023/08/29 05:37:56;;;;;;;52.63;27.20;;;8.70;99.90;;;;;;6133583;23;20048;-78
2023/08/29 05:40:22;;;;;;;14.38;11.45;;;8.70;99.90;;;;;;6133875;23;20013;-78
2023/08/29 05:42:47;;;;;;;37.70;22.20;;;8.80;99.90;;;;;;6134775;23;20033;-78
2023/08/29 05:45:13;;;;;;;15.30;13.23;;;8.80;99.90;;;;;;6135692;23;20005;-78
2023/08/29 05:47:39;;;;;;;22.58;15.98;;;8.90;99.90;;;;;;6106070;23;20407;-77
2023/08/29 05:50:05;;;;;;;14.77;11.27;;;8.90;99.90;;;;;;6129011;23;20104;-78
2023/08/29 05:52:31;;;;;;;19.85;15.27;;;8.90;99.90;;;;;;6104643;23;20458;-78
2023/08/29 05:54:57;;;;;;;10.77;8.98;;;9.00;99.90;;;;;;6129823;23;20016;-78
2023/08/29 05:57:23;;;;;;;11.13;9.35;;;9.00;99.90;;;;;;6129609;23;20044;-78
2023/08/29 05:59:49;;;;;;;13.68;10.68;;;9.00;99.90;;;;;;6128494;23;20017;-78
2023/08/29 06:02:14;;;;;;;12.45;9.85;;;9.10;99.90;;;;;;6129374;23;20350;-78
2023/08/29 06:04:40;;;;;;;11.13;9.40;;;9.10;99.90;;;;;;6128941;23;20006;-78
2023/08/29 06:07:06;;;;;;;16.42;10.10;;;9.20;99.90;;;;;;6129030;23;20013;-78
2023/08/29 06:09:33;;;;;;;9.93;8.93;;;9.20;99.90;;;;;;6129119;23;20068;-78
2023/08/29 06:11:59;;;;;;;10.05;8.82;;;9.30;99.90;;;;;;6129468;23;20016;-78
2023/08/29 06:14:25;;;;;;;10.85;9.45;;;9.30;99.90;;;;;;6129272;23;20017;-79
2023/08/29 06:16:50;;;;;;;18.17;13.10;;;9.30;99.90;;;;;;6130955;23;20346;-78
2023/08/29 06:19:16;;;;;;;18.85;13.23;;;9.40;99.90;;;;;;6129473;23;20010;-77
2023/08/29 06:21:42;;;;;;;27.90;17.13;;;9.40;99.90;;;;;;6129674;23;20013;-81
2023/08/29 06:24:08;;;;;;;21.33;18.00;;;9.50;99.90;;;;;;6130830;23;20006;-78
2023/08/29 06:26:33;;;;;;;21.98;18.50;;;9.50;99.90;;;;;;6128083;23;20144;-78
2023/08/29 06:28:59;;;;;;;24.75;21.27;;;9.60;99.90;;;;;;6128833;23;20085;-78
2023/08/29 06:31:25;;;;;;;20.38;18.30;;;9.70;99.90;;;;;;6127945;23;20144;-77
2023/08/29 06:33:50;;;;;;;20.60;18.45;;;9.80;99.90;;;;;;6128676;23;20013;-77
2023/08/29 06:36:16;;;;;;;27.33;24.35;;;9.90;99.90;;;;;;6128718;23;20013;-77
2023/08/29 06:38:42;;;;;;;32.05;26.95;;;10.10;99.90;;;;;;6126024;23;20016;-78
2023/08/29 06:41:08;;;;;;;40.47;32.90;;;10.20;99.90;;;;;;6102606;23;20021;-78
2023/08/29 06:43:34;;;;;;;38.97;34.65;;;10.30;99.90;;;;;;6127668;23;20013;-78
2023/08/29 06:46:00;;;;;;;105.80;51.63;;;10.50;99.90;;;;;;6127426;23;20016;-77
2023/08/29 06:48:25;;;;;;;40.83;36.60;;;10.70;99.90;;;;;;6127132;23;20020;-77
2023/08/29 06:50:51;;;;;;;42.45;38.08;;;10.90;99.90;;;;;;6127874;23;20020;-81
2023/08/29 06:53:17;;;;;;;110.90;55.15;;;11.00;99.90;;;;;;6129101;23;20465;-78
2023/08/29 06:55:42;;;;;;;96.47;57.00;;;11.20;99.90;;;;;;6128437;23;20454;-78
2023/08/29 06:58:08;;;;;;;43.22;38.58;;;11.40;99.90;;;;;;6127655;23;20050;-78
2023/08/29 07:00:34;;;;;;;52.25;38.03;;;11.60;99.90;;;;;;6128266;23;20410;-78
2023/08/29 07:03:00;;;;;;;49.95;40.42;;;11.70;99.90;;;;;;6152977;23;20045;-78
2023/08/29 07:05:26;;;;;;;110.20;51.35;;;11.90;99.90;;;;;;6128833;23;20013;-78
2023/08/29 07:07:52;;;;;;;48.30;39.75;;;12.10;99.90;;;;;;6152063;23;20006;-78
2023/08/29 07:10:18;;;;;;;43.25;38.58;;;12.30;99.90;;;;;;6128774;23;20009;-78
2023/08/29 07:12:44;;;;;;;31.35;28.23;;;12.50;99.90;;;;;;6104013;23;20346;-78
2023/08/29 07:15:10;;;;;;;45.15;37.70;;;12.70;99.90;;;;;;6129523;23;20454;-78
2023/08/29 07:17:35;;;;;;;47.08;38.00;;;12.90;99.90;;;;;;6128567;23;20009;-78
2023/08/29 07:20:11;;;;;;;35.20;31.45;;;13.00;99.90;;;;;;6127684;23;20020;-77
2023/08/29 07:22:40;;;;;;;35.03;31.50;;;13.20;99.90;;;;;;6127244;23;20417;-80
2023/08/29 07:25:06;;;;;;;41.70;37.03;;;13.40;99.90;;;;;;6127765;23;20014;-80
2023/08/29 07:27:32;;;;;;;40.42;33.85;;;13.60;99.90;;;;;;6127467;23;20009;-80
2023/08/29 07:29:58;;;;;;;40.33;35.15;;;13.70;99.90;;;;;;6128986;23;20265;-80
2023/08/29 07:32:23;;;;;;;51.13;33.90;;;13.90;99.90;;;;;;6132630;23;20500;-80
2023/08/29 07:34:51;;;;;;;21.67;19.60;;;14.10;99.90;;;;;;6133172;23;20402;-77
2023/08/29 07:37:17;;;;;;;18.45;16.73;;;14.20;99.90;;;;;;6127237;23;20015;-78
2023/08/29 07:39:43;;;;;;;54.13;33.90;;;14.40;99.90;;;;;;6129218;23;20443;-77
2023/08/29 07:42:09;;;;;;;38.40;29.98;;;14.50;99.90;;;;;;6127919;23;20014;-77
2023/08/29 07:44:34;;;;;;;27.90;25.00;;;14.60;99.90;;;;;;6127403;23;20102;-77
2023/08/29 07:47:00;;;;;;;16.30;13.07;;;14.80;99.90;;;;;;6127729;23;20055;-77
2023/08/29 07:49:26;;;;;;;11.82;10.80;;;14.90;99.90;;;;;;6128586;23;20018;-77
2023/08/29 07:51:53;;;;;;;16.70;15.05;;;15.00;99.90;;;;;;6104609;23;20017;-77
2023/08/29 07:54:22;;;;;;;10.32;8.73;;;15.20;99.90;;;;;;6129353;23;20454;-77
2023/08/29 07:56:47;;;;;;;12.82;11.52;;;15.30;99.90;;;;;;6129483;23;20034;-77
2023/08/29 07:59:13;;;;;;;17.73;16.10;;;15.40;99.90;;;;;;6129224;23;20021;-77
2023/08/29 08:01:42;;;;;;;19.77;17.30;;;15.60;99.90;;;;;;6152684;23;20355;-77
2023/08/29 08:04:07;;;;;;;15.20;12.57;;;15.70;99.90;;;;;;6129529;23;20041;-77
2023/08/29 08:06:34;;;;;;;9.65;8.38;;;15.80;99.90;;;;;;6129529;23;20060;-77
2023/08/29 08:09:00;;;;;;;10.98;8.63;;;15.90;99.90;;;;;;6129189;23;20079;-77
2023/08/29 08:11:26;;;;;;;11.00;10.00;;;16.00;99.90;;;;;;6128156;23;20453;-77
2023/08/29 08:13:52;;;;;;;11.52;9.85;;;16.10;99.90;;;;;;6104838;23;20010;-76
2023/08/29 08:16:17;;;;;;;8.98;8.05;;;16.20;99.90;;;;;;6130525;23;20145;-78
2023/08/29 08:18:43;;;;;;;14.00;10.15;;;16.30;99.90;;;;;;6128284;23;20021;-77
2023/08/29 08:21:08;;;;;;;7.93;7.13;;;16.40;99.90;;;;;;6129504;23;20041;-79
2023/08/29 08:23:34;;;;;;;7.13;5.47;;;16.40;99.90;;;;;;6133009;23;20013;-81
2023/08/29 08:26:00;;;;;;;16.95;8.50;;;16.50;99.90;;;;;;6132012;23;20097;-79
2023/08/29 08:28:25;;;;;;;7.93;5.90;;;16.50;99.90;;;;;;6129260;23;20026;-80
2023/08/29 08:30:51;;;;;;;8.27;7.03;;;16.60;99.90;;;;;;6130172;23;20437;-79
2023/08/29 08:33:17;;;;;;;7.03;5.50;;;16.70;99.90;;;;;;6129293;23;20358;-79
2023/08/29 08:35:43;;;;;;;9.10;7.15;;;16.90;99.90;;;;;;6129416;23;20020;-78
2023/08/29 08:38:09;;;;;;;10.18;8.20;;;17.10;99.90;;;;;;6128670;23;20032;-79
2023/08/29 08:40:36;;;;;;;4.82;2.80;;;17.40;99.90;;;;;;6104406;23;20449;-78
2023/08/29 08:43:05;;;;;;;4.65;3.20;;;17.70;99.90;;;;;;6128767;23;20351;-78
2023/08/29 08:45:32;;;;;;;5.20;4.65;;;18.00;99.90;;;;;;6128283;23;20465;-78
2023/08/29 08:48:02;;;;;;;7.30;5.10;;;18.20;99.90;;;;;;6128938;23;20010;-78
2023/08/29 08:50:28;;;;;;;4.07;3.65;;;18.50;99.90;;;;;;6130575;23;20052;-78
2023/08/29 08:52:56;;;;;;;3.65;2.95;;;18.80;99.90;;;;;;6130236;23;20014;-78
2023/08/29 08:55:22;;;;;;;2.95;2.50;;;19.20;99.90;;;;;;6131780;23;20010;-79
2023/08/29 08:57:50;;;;;;;5.35;3.38;;;19.40;99.90;;;;;;6130580;23;20016;-79
2023/08/29 09:00:16;;;;;;;5.00;3.58;;;19.70;99.90;;;;;;6132282;23;20391;-79
2023/08/29 09:02:43;;;;;;;4.68;3.03;;;19.90;99.90;;;;;;6129075;23;20049;-79
2023/08/29 09:05:08;;;;;;;3.55;2.22;;;20.20;99.90;;;;;;6129861;23;20010;-79
2023/08/29 09:07:39;;;;;;;4.43;1.98;;;20.40;99.90;;;;;;6129972;23;20072;-78
2023/08/29 09:10:14;;;;;;;3.78;2.42;;;20.50;99.90;;;;;;6129068;23;20049;-79
2023/08/29 09:12:50;;;;;;;5.05;3.10;;;20.60;99.90;;;;;;6132143;23;20013;-81
2023/08/29 09:15:18;;;;;;;3.95;2.60;;;21.00;99.90;;;;;;6127857;23;20068;-78
2023/08/29 09:17:45;;;;;;;3.35;2.53;;;21.40;99.90;;;;;;6128183;23;20048;-78
2023/08/29 09:20:11;;;;;;;4.30;2.42;;;21.90;99.90;;;;;;6102856;23;20010;-78
2023/08/29 09:22:42;;;;;;;3.38;2.28;;;22.20;99.90;;;;;;6128513;23;20017;-78
2023/08/29 09:25:09;;;;;;;3.63;2.70;;;22.40;99.90;;;;;;6127765;23;20021;-78
2023/08/29 09:27:47;;;;;;;4.80;3.10;;;22.30;99.90;;;;;;6128113;23;20013;-78
2023/08/29 09:30:15;;;;;;;5.15;3.00;;;22.40;99.90;;;;;;6127140;23;20092;-78
2023/08/29 09:32:43;;;;;;;4.53;3.20;;;22.30;99.90;;;;;;6127531;23;20162;-77
2023/08/29 09:35:12;;;;;;;3.65;2.67;;;22.10;99.90;;;;;;6128836;23;20021;-78
2023/08/29 09:37:45;;;;;;;4.28;3.10;;;21.60;99.90;;;;;;6128097;23;20020;-78
2023/08/29 09:40:14;;;;;;;5.03;3.35;;;21.10;99.90;;;;;;6127999;23;20010;-78
2023/08/29 09:42:40;;;;;;;4.75;3.53;;;20.50;99.90;;;;;;6128408;23;20056;-78
2023/08/29 09:45:07;;;;;;;4.15;3.40;;;20.10;99.90;;;;;;6128365;23;20009;-78
2023/08/29 09:47:34;;;;;;;4.68;3.17;;;19.70;99.90;;;;;;6104180;23;20342;-80
2023/08/29 09:50:00;;;;;;;7.78;3.88;;;19.40;99.90;;;;;;6130814;23;20014;-79
2023/08/29 09:52:26;;;;;;;5.30;3.20;;;19.10;99.90;;;;;;6130744;23;20017;-78
2023/08/29 09:54:52;;;;;;;3.55;3.17;;;18.90;99.90;;;;;;6131237;23;20014;-78
2023/08/29 09:57:21;;;;;;;5.18;3.90;;;18.70;99.90;;;;;;6131420;23;20014;-78
2023/08/29 09:59:48;;;;;;;6.32;4.18;;;18.60;99.90;;;;;;6131912;23;20020;-78
2023/08/29 10:02:14;;;;;;;8.30;4.30;;;18.40;99.90;;;;;;6104028;23;20017;-78
2023/08/29 10:04:46;;;;;;;6.13;3.92;;;18.30;99.90;;;;;;6128122;23;20044;-78
2023/08/29 10:07:26;;;;;;;4.65;4.10;;;18.20;99.90;;;;;;6128125;23;20075;-79
2023/08/29 10:09:52;;;;;;;4.55;3.60;;;18.20;99.90;;;;;;6128145;23;20037;-77
2023/08/29 10:12:19;;;;;;;4.80;3.42;;;18.10;99.90;;;;;;6127708;23;20476;-78
2023/08/29 10:14:46;;;;;;;4.90;3.15;;;18.00;99.90;;;;;;6103771;23;20361;-78
2023/08/29 10:17:13;;;;;;;3.45;2.78;;;18.10;99.90;;;;;;6127071;23;20044;-78
2023/08/29 10:19:40;;;;;;;4.13;3.15;;;18.10;99.90;;;;;;6126938;23;20009;-78
2023/08/29 10:22:09;;;;;;;4.82;3.50;;;18.10;99.90;;;;;;6127450;23;20024;-78
2023/08/29 10:24:38;;;;;;;3.53;3.22;;;18.10;99.90;;;;;;6127886;23;20338;-79
2023/08/29 10:27:04;;;;;;;4.65;3.47;;;18.10;99.90;;;;;;6127744;23;20025;-78
2023/08/29 10:29:31;;;;;;;4.40;4.00;;;18.10;99.90;;;;;;6127569;23;20009;-77
2023/08/29 10:31:59;;;;;;;4.35;4.05;;;18.20;99.90;;;;;;6127219;23;20013;-78
2023/08/29 10:34:30;;;;;;;4.35;3.92;;;18.20;99.90;;;;;;6128973;23;20056;-79
2023/08/29 10:36:59;;;;;;;6.57;5.10;;;18.20;99.90;;;;;;6105534;23;20040;-79
2023/08/29 10:39:26;;;;;;;4.55;4.10;;;18.20;99.90;;;;;;6130074;23;20088;-78
2023/08/29 10:41:56;;;;;;;5.82;4.20;;;18.20;99.90;;;;;;6131259;23;20017;-78
2023/08/29 10:44:31;;;;;;;5.28;4.18;;;18.20;99.90;;;;;;6131668;23;20009;-78
2023/08/29 10:47:23;;;;;;;5.57;4.78;;;18.20;99.90;;;;;;6107038;23;20430;-78
2023/08/29 10:49:56;;;;;;;5.90;4.70;;;18.20;99.90;;;;;;6128953;23;20032;-78
2023/08/29 10:52:21;;;;;;;5.47;4.95;;;18.20;99.90;;;;;;6105975;23;20026;-78
2023/08/29 10:55:01;;;;;;;6.28;5.00;;;18.20;99.90;;;;;;6108026;23;20019;-78
2023/08/29 10:57:27;;;;;;;5.65;5.05;;;18.30;99.90;;;;;;6132312;23;20017;-79
2023/08/29 10:59:53;;;;;;;5.45;4.97;;;18.30;99.90;;;;;;6106035;23;20435;-80
2023/08/29 11:02:27;;;;;;;6.20;5.60;;;18.40;99.90;;;;;;6127893;23;20021;-79
2023/08/29 11:05:09;;;;;;;6.45;5.75;;;18.50;99.90;;;;;;6130226;23;20014;-78
2023/08/29 11:07:35;;;;;;;4.00;3.70;;;18.60;99.90;;;;;;6126570;23;20010;-78
2023/08/29 11:10:22;;;;;;;6.10;5.60;;;18.70;99.90;;;;;;6127264;23;20331;-78
2023/08/29 11:13:09;;;;;;;6.05;5.45;;;18.80;99.90;;;;;;6142346;23;20318;-79
2023/08/29 11:15:50;;;;;;;6.45;5.50;;;18.90;99.90;;;;;;6126963;23;20326;-79
2023/08/29 11:19:09;;;;;;;5.13;4.65;;;19.00;99.90;;;;;;6129510;23;20032;-80
2023/08/29 11:22:08;;;;;;;5.05;4.55;;;19.10;99.90;;;;;;6155269;23;20453;-77
2023/08/29 11:24:35;;;;;;;5.88;5.32;;;19.30;99.90;;;;;;6129140;23;20014;-79
2023/08/29 11:27:00;;;;;;;4.50;4.10;;;19.40;99.90;;;;;;6128873;23;20045;-78
2023/08/29 11:29:36;;;;;;;4.75;4.25;;;19.50;99.90;;;;;;6128838;23;20013;-78
2023/08/29 11:32:02;;;;;;;4.75;4.32;;;19.80;99.90;;;;;;6128898;23;20104;-79
2023/08/29 11:34:28;;;;;;;5.57;5.05;;;20.20;99.90;;;;;;6128656;23;20014;-78
2023/08/29 11:36:54;;;;;;;4.72;4.10;;;20.70;99.90;;;;;;6128637;23;20013;-78
2023/08/29 11:39:21;;;;;;;5.22;4.70;;;21.10;99.90;;;;;;6153838;23;20021;-78
2023/08/29 11:41:47;;;;;;;4.45;3.78;;;21.50;99.90;;;;;;6127857;23;20010;-81
2023/08/29 11:44:12;;;;;;;4.40;4.07;;;22.00;99.90;;;;;;6128466;23;20032;-78
2023/08/29 11:46:38;;;;;;;4.45;3.40;;;22.30;99.90;;;;;;6152415;23;20017;-79
2023/08/29 11:49:15;;;;;;;8.00;4.07;;;22.60;99.90;;;;;;6128056;23;20018;-79
2023/08/29 11:51:41;;;;;;;3.45;2.90;;;22.70;99.90;;;;;;6155363;23;20009;-80
2023/08/29 11:54:45;;;;;;;3.90;3.40;;;22.30;99.90;;;;;;6129086;23;20017;-80
2023/08/29 11:57:12;;;;;;;4.30;3.85;;;21.80;99.90;;;;;;6128213;23;20016;-79
2023/08/29 11:59:42;;;;;;;4.13;3.72;;;21.40;99.90;;;;;;6153517;23;20155;-80
2023/08/29 12:02:11;;;;;;;3.90;3.60;;;21.40;99.90;;;;;;6128521;23;20017;-79
2023/08/29 12:04:41;;;;;;;3.80;3.40;;;21.60;99.90;;;;;;6153625;23;20013;-79
2023/08/29 12:07:17;;;;;;;4.97;3.75;;;21.60;99.90;;;;;;6127893;23;20018;-79
2023/08/29 12:09:45;;;;;;;4.57;4.10;;;21.40;99.90;;;;;;6129010;23;20018;-78
2023/08/29 12:12:30;;;;;;;4.63;4.22;;;21.20;99.90;;;;;;6153565;23;20013;-80
2023/08/29 12:14:56;;;;;;;4.90;4.32;;;20.90;99.90;;;;;;6129472;23;20119;-78
2023/08/29 12:17:23;;;;;;;4.85;4.20;;;20.60;99.90;;;;;;6152226;23;20475;-77
2023/08/29 12:19:49;;;;;;;6.45;4.85;;;20.40;99.90;;;;;;6128075;23;20013;-78
2023/08/29 12:22:21;;;;;;;4.80;4.40;;;20.20;99.90;;;;;;6128622;23;20014;-78
2023/08/29 12:24:54;;;;;;;5.30;4.80;;;20.00;99.90;;;;;;6152698;23;20045;-78
2023/08/29 12:27:20;;;;;;;5.47;4.68;;;19.90;99.90;;;;;;6153112;23;20009;-79
2023/08/29 12:29:46;;;;;;;4.18;3.88;;;19.90;99.90;;;;;;6128979;23;20077;-78
2023/08/29 12:32:13;;;;;;;5.20;3.85;;;19.80;99.90;;;;;;6154856;23;20060;-79
2023/08/29 12:34:41;;;;;;;5.28;4.15;;;19.70;99.90;;;;;;6154640;23;20029;-78
2023/08/29 12:37:06;;;;;;;4.63;4.22;;;19.70;99.90;;;;;;6153899;23;20024;-78
2023/08/29 12:39:32;;;;;;;5.68;4.30;;;19.60;99.90;;;;;;6127606;23;20013;-78
2023/08/29 12:41:58;;;;;;;5.40;4.60;;;19.60;99.90;;;;;;6129872;23;20017;-78